Terminal Aerodrome Forecast
Issued by NWS Billings, MT

Home | Current Version | Previous Version | Graphics & Text | Print | Product List | Glossary On
Versions: 1 2 3 4 5 6 7 8 9 10 11 12 13 14 15 16 17 18 19 20 21 22 23 24 25 26 27 28
000
FTUS45 KBYZ 112337
TAFMLS
TAF
KMLS 112337Z 1200/1224 05011KT P6SM VCSH SCT080 BKN120
     FM120900 06007KT P6SM VCTS SCT050CB BKN080
     FM121600 35011KT P6SM SCT100=

USA.gov is the U.S. government's official web portal to all federal, state and local government web resources and services.